Time;durP1;ratioP1;P1;durP2;ratioP2;P2;SDS_P1;SDS_P2;PMS_P1;PMS_P2;Temp;Humidity;BMP_temperature;BMP_pressure;BME280_temperature;BME280_humidity;BME280_pressure;Samples;Min_cycle;Max_cycle;Signal;HPM_P1;HPM_P2
2023/01/17 00:10:17;;;;;;;1.00;0.30;;;;;;;16.50;48.26;94061.50;10371913;28;20056;-27
2023/01/17 00:15:22;;;;;;;1.00;0.20;;;;;;;16.52;48.42;94068.16;10368153;28;20042;-27
2023/01/17 00:26:03;;;;;;;0.60;0.20;;;;;;;16.50;48.01;94057.28;10351475;28;20045;-27
2023/01/17 01:34:07;;;;;;;0.98;0.20;;;;;;;16.60;48.18;94083.06;10365423;28;20041;-26
2023/01/17 01:39:08;;;;;;;0.37;0.30;;;;;;;16.60;48.14;94081.34;10366141;28;20527;-27
2023/01/17 01:44:47;;;;;;;0.30;0.20;;;;;;;16.59;48.86;94084.75;10359724;28;20494;-27
2023/01/17 01:49:49;;;;;;;0.20;0.10;;;;;;;16.59;48.14;94077.19;10350328;28;20034;-26
2023/01/17 01:54:56;;;;;;;2.00;0.50;;;;;;;16.58;48.30;94075.53;10366302;28;20045;-27
2023/01/17 02:00:01;;;;;;;0.57;0.20;;;;;;;16.54;48.60;94068.94;10369352;28;20129;-27
2023/01/17 02:05:01;;;;;;;0.15;0.10;;;;;;;16.57;49.46;94070.53;10374684;28;20037;-27
2023/01/17 02:10:03;;;;;;;0.30;0.13;;;;;;;16.54;49.11;94058.81;10370838;28;20033;-27
2023/01/17 02:15:06;;;;;;;0.10;0.10;;;;;;;16.55;49.18;94054.63;10386873;28;20064;-26
2023/01/17 02:20:32;;;;;;;0.10;0.10;;;;;;;16.57;48.84;94058.75;10375971;28;20132;-26
2023/01/17 02:26:13;;;;;;;1.90;0.30;;;;;;;16.55;48.65;94054.63;10365708;28;20037;-27
2023/01/17 02:31:20;;;;;;;0.20;0.17;;;;;;;16.53;48.54;94047.09;10338135;28;20045;-27
2023/01/17 02:36:52;;;;;;;0.70;0.20;;;;;;;16.54;48.96;94043.66;10367651;28;20092;-26
2023/01/17 02:42:08;;;;;;;0.40;0.30;;;;;;;16.53;48.04;94031.94;10350849;28;20044;-27
2023/01/17 02:47:35;;;;;;;1.07;0.30;;;;;;;16.55;48.59;94030.16;10371906;28;20441;-26
2023/01/17 02:52:44;;;;;;;0.30;0.10;;;;;;;16.53;48.57;94031.94;10369049;28;20300;-27
2023/01/17 02:58:14;;;;;;;0.20;0.20;;;;;;;16.53;48.58;94026.88;10360805;28;20037;-26
2023/01/17 03:03:49;;;;;;;0.30;0.20;;;;;;;16.52;48.61;94022.72;10367259;28;20077;-26
2023/01/17 03:08:51;;;;;;;0.60;0.30;;;;;;;16.52;48.81;94020.19;10356977;28;20521;-27
2023/01/17 03:13:58;;;;;;;0.30;0.10;;;;;;;16.52;48.66;94020.19;10360519;28;20620;-27
2023/01/17 03:18:58;;;;;;;0.63;0.20;;;;;;;16.54;48.00;94008.31;10363101;28;20042;-26
2023/01/17 03:23:59;;;;;;;0.50;0.30;;;;;;;16.56;49.08;94011.63;10365711;28;20041;-26
2023/01/17 03:28:59;;;;;;;0.33;0.20;;;;;;;16.57;49.13;94007.41;10361916;28;20300;-28
2023/01/17 03:33:59;;;;;;;0.50;0.30;;;;;;;16.56;48.56;94006.59;10376866;28;20395;-27
2023/01/17 03:39:01;;;;;;;0.30;0.20;;;;;;;16.54;48.70;94000.75;10364319;28;20040;-27
2023/01/17 03:44:02;;;;;;;0.40;0.20;;;;;;;16.52;48.87;93989.88;10366622;28;20030;-27
2023/01/17 03:49:03;;;;;;;0.63;0.20;;;;;;;16.54;48.98;93998.22;10367595;28;20065;-27
2023/01/17 03:54:03;;;;;;;0.33;0.13;;;;;;;16.52;49.08;93999.97;10365247;28;20405;-27
2023/01/17 03:59:03;;;;;;;0.20;0.10;;;;;;;16.53;48.63;93999.09;10379284;28;20533;-27
2023/01/17 04:04:04;;;;;;;0.53;0.20;;;;;;;16.49;48.79;93996.75;10365563;28;20915;-27
2023/01/17 04:09:04;;;;;;;0.30;0.30;;;;;;;16.45;49.29;93988.44;10353196;28;20033;-27
2023/01/17 04:14:05;;;;;;;1.55;0.20;;;;;;;16.53;49.14;93994.06;10362468;28;20049;-27
2023/01/17 04:19:05;;;;;;;0.50;0.20;;;;;;;16.51;48.62;93982.34;10372234;28;20038;-27
2023/01/17 04:24:06;;;;;;;0.50;0.20;;;;;;;16.52;48.73;93972.22;10360938;28;20034;-27
2023/01/17 04:29:07;;;;;;;0.77;0.40;;;;;;;16.57;48.31;93972.03;10362109;28;20042;-26
2023/01/17 04:34:07;;;;;;;1.20;0.35;;;;;;;16.56;48.62;93966.19;10368969;28;20041;-26
2023/01/17 04:39:07;;;;;;;0.73;0.20;;;;;;;16.62;48.72;93962.59;10366344;28;20102;-27
2023/01/17 04:44:08;;;;;;;1.13;0.20;;;;;;;16.64;47.85;93946.53;10375080;28;20466;-26
2023/01/17 04:49:08;;;;;;;0.25;0.10;;;;;;;16.60;48.01;93939.91;10371333;28;20379;-28
2023/01/17 04:54:08;;;;;;;0.63;0.20;;;;;;;16.54;46.80;93932.56;10369654;28;20046;-28
2023/01/17 04:59:09;;;;;;;0.43;0.20;;;;;;;16.55;47.19;93929.16;10366971;28;20661;-26
2023/01/17 05:04:09;;;;;;;0.40;0.30;;;;;;;16.56;47.20;93923.25;10365950;28;20569;-26
2023/01/17 05:09:10;;;;;;;1.17;0.33;;;;;;;16.58;46.42;93918.97;10363462;28;20030;-27
2023/01/17 05:14:10;;;;;;;1.13;0.30;;;;;;;16.57;46.25;93912.28;10362271;28;20401;-27
2023/01/17 05:19:10;;;;;;;1.13;0.30;;;;;;;16.54;46.40;93904.78;10368286;28;20408;-27
2023/01/17 05:24:11;;;;;;;1.38;0.40;;;;;;;16.56;46.60;93900.53;10368747;28;20042;-27
2023/01/17 05:29:11;;;;;;;2.00;0.40;;;;;;;16.50;46.00;93884.75;10361924;28;20431;-26
2023/01/17 05:34:12;;;;;;;1.17;0.30;;;;;;;16.48;45.58;93871.38;10370858;28;20033;-27
2023/01/17 05:39:12;;;;;;;0.63;0.30;;;;;;;16.46;45.84;93861.31;10380279;28;20033;-27
2023/01/17 05:44:14;;;;;;;0.30;0.30;;;;;;;16.59;45.26;93854.09;10376851;28;20178;-26
2023/01/17 05:49:14;;;;;;;0.50;0.50;;;;;;;16.58;44.94;93858.34;10362060;28;20041;-27
2023/01/17 05:54:14;;;;;;;2.70;0.50;;;;;;;16.59;44.92;93854.09;10364299;28;20039;-27
2023/01/17 05:59:15;;;;;;;2.50;0.30;;;;;;;16.53;47.02;93860.22;10365419;28;20030;-26
2023/01/17 06:04:15;;;;;;;0.53;0.40;;;;;;;16.51;48.01;93841.78;10368592;28;20507;-27
2023/01/17 06:09:15;;;;;;;2.20;0.57;;;;;;;16.58;47.51;93848.25;10362325;28;20494;-28
2023/01/17 06:14:16;;;;;;;5.07;0.73;;;;;;;16.58;46.45;93835.63;10372787;28;20512;-27
2023/01/17 06:19:16;;;;;;;1.87;0.43;;;;;;;16.57;46.56;93826.41;10363416;28;20044;-26
2023/01/17 06:24:16;;;;;;;1.23;0.67;;;;;;;16.58;46.69;93837.31;10369199;28;20048;-26
2023/01/17 06:29:17;;;;;;;2.63;0.97;;;;;;;16.57;47.35;93836.50;10363186;28;20038;-27
2023/01/17 06:34:17;;;;;;;3.67;0.77;;;;;;;16.31;44.81;93834.13;10370561;28;20418;-26
2023/01/17 06:39:17;;;;;;;4.10;0.80;;;;;;;16.27;44.93;93819.16;10368734;28;20506;-26
2023/01/17 06:44:18;;;;;;;1.90;0.90;;;;;;;16.44;46.39;93809.28;10370065;28;20453;-25
2023/01/17 06:49:18;;;;;;;3.27;0.80;;;;;;;16.48;46.33;93801.53;10366192;28;20030;-27
2023/01/17 06:54:19;;;;;;;1.75;0.90;;;;;;;16.51;46.93;93800.56;10369290;28;20038;-27
2023/01/17 06:59:19;;;;;;;2.77;0.87;;;;;;;16.50;47.21;93799.75;10373748;28;20049;-26
2023/01/17 07:04:20;;;;;;;1.02;0.60;;;;;;;16.49;46.87;93793.06;10362238;28;20069;-27
2023/01/17 07:09:20;;;;;;;1.80;0.63;;;;;;;16.49;47.27;93788.00;10368668;28;20042;-27
2023/01/17 07:14:20;;;;;;;4.60;0.97;;;;;;;16.47;48.19;93774.63;10370337;28;20512;-27
2023/01/17 07:19:21;;;;;;;4.00;0.60;;;;;;;16.48;47.86;93773.75;10367640;28;20034;-27
2023/01/17 07:24:21;;;;;;;1.90;0.98;;;;;;;16.50;47.47;93774.50;10366230;28;20034;-27
2023/01/17 07:29:22;;;;;;;1.77;0.50;;;;;;;16.53;47.52;93783.66;10365483;28;20030;-27
2023/01/17 07:34:22;;;;;;;1.10;0.50;;;;;;;16.51;47.41;93776.13;10368445;28;20044;-27
2023/01/17 07:39:22;;;;;;;1.73;0.67;;;;;;;16.47;47.12;93768.75;10360150;28;20066;-27
2023/01/17 07:44:23;;;;;;;1.50;0.70;;;;;;;16.52;46.98;93782.03;10363012;28;20494;-27
2023/01/17 07:49:23;;;;;;;2.07;0.60;;;;;;;16.52;47.32;93784.56;10369185;28;20040;-26
2023/01/17 07:54:23;;;;;;;1.80;0.60;;;;;;;16.51;47.31;93781.19;10365427;28;20145;-27
2023/01/17 07:59:26;;;;;;;3.13;0.90;;;;;;;16.49;47.11;93788.00;10368057;28;20044;-27
2023/01/17 08:04:27;;;;;;;1.08;0.68;;;;;;;16.49;47.11;93785.47;10363959;28;20044;-27
2023/01/17 08:09:28;;;;;;;2.13;0.80;;;;;;;16.47;47.23;93763.69;10359641;28;20045;-27
2023/01/17 08:14:28;;;;;;;0.90;0.38;;;;;;;16.49;47.58;93765.28;10368052;28;20048;-26
2023/01/17 08:19:28;;;;;;;1.10;0.60;;;;;;;16.48;47.56;93756.06;10357062;28;20033;-27
2023/01/17 08:24:29;;;;;;;1.00;0.43;;;;;;;16.48;47.65;93740.94;10362239;28;20517;-27
2023/01/17 08:29:29;;;;;;;1.47;0.70;;;;;;;16.42;48.42;93727.69;10363957;28;20022;-26
2023/01/17 08:34:32;;;;;;;1.40;0.60;;;;;;;16.46;48.03;93732.56;10366305;28;20516;-27
2023/01/17 08:39:32;;;;;;;1.42;0.40;;;;;;;16.47;48.20;93720.78;10364631;28;20398;-27
2023/01/17 08:44:33;;;;;;;1.90;0.40;;;;;;;16.52;47.46;93721.44;10374086;28;20030;-27
2023/01/17 08:49:33;;;;;;;0.50;0.30;;;;;;;16.52;47.51;93699.50;10367601;28;20037;-27
2023/01/17 08:54:33;;;;;;;1.40;0.70;;;;;;;16.51;47.40;93690.28;10364623;28;20772;-27
2023/01/17 08:59:34;;;;;;;0.90;0.37;;;;;;;16.51;46.87;93685.25;10366972;28;20034;-26
2023/01/17 09:04:34;;;;;;;2.30;0.67;;;;;;;16.53;47.06;93687.72;10366144;28;20423;-27
2023/01/17 09:09:34;;;;;;;0.90;0.40;;;;;;;16.52;47.17;93681.84;10368767;28;20563;-27
2023/01/17 09:14:36;;;;;;;0.50;0.40;;;;;;;16.49;47.23;93681.13;10375000;28;20482;-26
2023/01/17 09:19:39;;;;;;;1.10;0.57;;;;;;;16.50;47.64;93682.78;10366682;28;20473;-27
2023/01/17 09:24:40;;;;;;;1.30;0.68;;;;;;;16.51;46.89;93674.31;10367006;28;20064;-27
2023/01/17 09:29:41;;;;;;;0.80;0.30;;;;;;;16.50;47.38;93673.50;10373560;28;20081;-27
2023/01/17 09:34:42;;;;;;;0.47;0.30;;;;;;;16.50;47.43;93682.78;10368244;28;20029;-26
2023/01/17 09:39:42;;;;;;;0.77;0.32;;;;;;;16.50;46.59;93677.72;10371290;28;20034;-26
2023/01/17 09:44:46;;;;;;;0.40;0.30;;;;;;;16.48;48.07;93697.16;10373601;28;20044;-26
2023/01/17 09:49:47;;;;;;;1.17;0.40;;;;;;;16.45;48.13;93685.47;10366516;28;20115;-27
2023/01/17 09:54:48;;;;;;;0.20;0.20;;;;;;;16.45;47.35;93689.72;10371651;28;20447;-27
2023/01/17 09:59:55;;;;;;;1.17;0.50;;;;;;;16.45;47.22;93697.31;10373184;28;20125;-27
2023/01/17 10:05:05;;;;;;;1.20;0.40;;;;;;;16.48;47.34;93690.44;10369265;28;20108;-27
2023/01/17 10:10:26;;;;;;;0.47;0.30;;;;;;;16.41;47.89;93653.69;10367500;28;20088;-26
2023/01/17 10:15:33;;;;;;;1.40;0.50;;;;;;;16.43;48.01;93641.81;10367911;28;20506;-27
2023/01/17 10:20:49;;;;;;;0.75;0.55;;;;;;;16.45;47.43;93644.28;10374329;28;20314;-27
2023/01/17 10:25:58;;;;;;;0.77;0.50;;;;;;;16.45;47.35;93629.94;10363725;28;20045;-27
2023/01/17 10:31:10;;;;;;;1.15;0.63;;;;;;;16.46;47.76;93626.53;10372328;28;20088;-27
2023/01/17 10:36:17;;;;;;;2.45;0.47;;;;;;;16.46;46.93;93625.72;10369524;28;20096;-28
2023/01/17 10:41:32;;;;;;;;;;;;;;;16.45;47.37;93627.41;10369556;28;20402;-26
2023/01/17 10:46:51;;;;;;;0.43;0.40;;;;;;;16.39;47.24;93617.59;10371784;28;19917;-28
2023/01/17 10:52:10;;;;;;;1.23;0.55;;;;;;;16.43;47.41;93609.00;10369216;28;20040;-27
2023/01/17 10:57:14;;;;;;;0.63;0.25;;;;;;;16.42;47.35;93577.06;10366708;28;20172;-27
2023/01/17 11:02:21;;;;;;;1.10;0.38;;;;;;;16.36;48.33;93556.28;10364129;28;20513;-26
2023/01/17 11:07:23;;;;;;;0.70;0.30;;;;;;;16.40;48.38;93560.34;10369512;28;20033;-27
2023/01/17 11:12:26;;;;;;;0.28;0.22;;;;;;;16.39;48.02;93558.69;10365391;28;20072;-28
2023/01/17 11:17:31;;;;;;;0.85;0.45;;;;;;;16.39;47.63;93544.41;10370238;28;20069;-26
2023/01/17 11:22:31;;;;;;;0.30;0.20;;;;;;;16.42;47.58;93549.31;10365949;28;20109;-27
2023/01/17 11:27:34;;;;;;;0.80;0.52;;;;;;;16.47;46.88;93541.53;10366817;28;20033;-27
2023/01/17 11:32:35;;;;;;;0.22;0.20;;;;;;;16.49;46.61;93525.44;10367802;28;20022;-26
2023/01/17 11:37:35;;;;;;;2.65;0.47;;;;;;;16.52;45.77;93522.78;10367881;28;20038;-27
2023/01/17 11:42:37;;;;;;;0.98;0.40;;;;;;;16.53;46.56;93524.41;10365627;28;20157;-26
2023/01/17 11:47:37;;;;;;;1.02;0.40;;;;;;;16.55;46.83;93527.69;10368876;28;20038;-27
2023/01/17 11:52:37;;;;;;;0.83;0.40;;;;;;;16.53;46.74;93521.06;10363913;28;20030;-27
2023/01/17 11:57:38;;;;;;;0.43;0.40;;;;;;;16.55;46.60;93522.63;10365693;28;20042;-27
2023/01/17 12:02:41;;;;;;;0.90;0.45;;;;;;;16.58;46.43;93509.06;10372791;28;20049;-27
2023/01/17 12:07:46;;;;;;;0.50;0.45;;;;;;;16.59;46.21;93505.63;10368405;28;20034;-27
2023/01/17 12:18:39;;;;;;;1.05;0.60;;;;;;;16.62;46.56;93483.59;10366669;28;20049;-27
2023/01/17 12:23:50;;;;;;;1.15;0.77;;;;;;;16.62;47.31;93476.03;10364089;28;20498;-27
2023/01/17 12:29:13;;;;;;;1.13;0.73;;;;;;;16.59;47.44;93450.91;10364454;28;20494;-26
2023/01/17 12:34:49;;;;;;;1.17;0.90;;;;;;;16.57;46.96;93450.19;10362653;28;20038;-27
2023/01/17 12:39:59;;;;;;;2.13;0.90;;;;;;;16.56;47.38;93451.06;10343477;28;20073;-27
2023/01/17 12:45:05;;;;;;;3.42;0.88;;;;;;;16.58;46.94;93446.75;10366848;28;20045;-25
2023/01/17 12:50:23;;;;;;;5.25;1.25;;;;;;;16.58;46.91;93448.47;10360695;28;20112;-27
2023/01/17 12:55:40;;;;;;;2.17;1.55;;;;;;;16.59;47.86;93440.81;10364163;28;20046;-27
2023/01/17 13:00:44;;;;;;;4.25;1.13;;;;;;;16.57;48.07;93437.56;10363434;28;20038;-27
2023/01/17 13:05:45;;;;;;;2.30;1.48;;;;;;;16.56;48.65;93433.41;10364842;28;20162;-27
2023/01/17 13:11:05;;;;;;;2.90;1.80;;;;;;;16.57;48.23;93417.34;10363187;28;20029;-28
2023/01/17 13:16:14;;;;;;;2.38;1.50;;;;;;;16.55;48.80;93429.22;10366712;28;20539;-26
2023/01/17 13:21:26;;;;;;;2.47;1.85;;;;;;;16.55;49.18;93419.09;10362086;28;20077;-27
2023/01/17 13:26:45;;;;;;;2.22;1.83;;;;;;;16.54;48.74;93417.47;10362406;28;20034;-26
2023/01/17 13:31:50;;;;;;;6.30;2.30;;;;;;;16.54;49.92;93414.94;10364049;28;20061;-27
2023/01/17 13:37:18;;;;;;;4.88;2.15;;;;;;;16.54;50.24;93422.53;10364894;28;20406;-27
2023/01/17 13:42:39;;;;;;;2.53;1.70;;;;;;;16.45;48.12;93410.31;10358198;28;20038;-27
2023/01/17 13:47:40;;;;;;;4.32;1.92;;;;;;;16.52;48.90;93436.94;10359664;28;20497;-27
2023/01/17 13:52:41;;;;;;;3.13;1.58;;;;;;;16.45;47.94;93425.47;10366455;28;20026;-27
2023/01/17 13:57:42;;;;;;;2.70;1.93;;;;;;;16.52;49.83;93451.28;10378538;28;20403;-27
2023/01/17 14:02:42;;;;;;;2.50;1.70;;;;;;;16.54;48.84;93459.59;10366263;28;20295;-26
2023/01/17 14:07:48;;;;;;;5.60;1.80;;;;;;;16.56;49.42;93466.22;10372215;28;20037;-26
2023/01/17 14:12:49;;;;;;;3.67;1.60;;;;;;;16.57;48.83;93467.03;10371667;28;20324;-27
2023/01/17 14:17:51;;;;;;;3.20;1.90;;;;;;;16.55;49.01;93464.56;10364909;28;20865;-27
2023/01/17 14:22:58;;;;;;;6.03;1.65;;;;;;;16.55;48.87;93474.66;10364409;28;20057;-26
2023/01/17 14:28:15;;;;;;;3.45;1.48;;;;;;;16.56;49.74;93476.31;10361040;28;20034;-27
2023/01/17 14:33:21;;;;;;;3.63;2.17;;;;;;;16.60;48.96;93472.75;10366228;28;20054;-27
2023/01/17 14:38:25;;;;;;;2.95;1.55;;;;;;;16.63;48.13;93476.84;10368277;28;20414;-27
2023/01/17 14:43:31;;;;;;;2.97;1.35;;;;;;;16.62;48.12;93470.97;10364451;28;20269;-27
2023/01/17 14:48:31;;;;;;;2.97;1.77;;;;;;;16.60;49.49;93472.75;10364388;28;20445;-26
2023/01/17 14:53:32;;;;;;;3.40;1.48;;;;;;;16.57;49.36;93462.81;10372337;28;20354;-27
2023/01/17 14:58:35;;;;;;;4.32;1.45;;;;;;;16.55;48.92;93458.69;10362398;28;20036;-27
2023/01/17 15:03:49;;;;;;;2.72;1.30;;;;;;;16.59;48.35;93460.19;10361288;28;20065;-25
2023/01/17 15:08:53;;;;;;;2.55;1.33;;;;;;;16.63;49.15;93456.66;10362196;28;20527;-27
2023/01/17 15:13:56;;;;;;;5.50;2.45;;;;;;;16.64;48.54;93443.13;10362098;28;20038;-27
2023/01/17 15:18:56;;;;;;;7.95;1.60;;;;;;;16.67;49.45;93448.03;10361630;28;20046;-26
2023/01/17 15:24:01;;;;;;;4.23;1.40;;;;;;;16.65;48.80;93448.13;10368156;28;20536;-27
2023/01/17 15:29:07;;;;;;;4.82;1.73;;;;;;;16.64;49.31;93445.66;10368836;28;20030;-27
2023/01/17 15:34:31;;;;;;;2.73;1.10;;;;;;;16.66;48.12;93459.03;10368673;28;20029;-27
2023/01/17 15:39:37;;;;;;;4.90;1.35;;;;;;;16.64;48.43;93459.13;10365651;28;20049;-27
2023/01/17 15:44:40;;;;;;;2.78;1.48;;;;;;;16.64;51.15;93450.72;10369393;28;20414;-26
2023/01/17 15:49:50;;;;;;;3.85;1.38;;;;;;;16.33;46.70;93452.91;10365287;28;20040;-27
2023/01/17 15:55:11;;;;;;;2.95;1.38;;;;;;;16.50;49.48;93450.50;10372086;28;20116;-27
2023/01/17 16:00:14;;;;;;;2.03;1.10;;;;;;;16.54;49.83;93462.91;10365368;28;20045;-27
2023/01/17 16:05:23;;;;;;;6.22;1.40;;;;;;;16.54;50.26;93467.97;10361275;28;20077;-27
2023/01/17 16:10:30;;;;;;;6.53;1.08;;;;;;;16.49;49.22;93469.91;10356691;28;20041;-27
2023/01/17 16:15:31;;;;;;;3.67;1.42;;;;;;;16.54;50.34;93467.97;10364580;28;20030;-26
2023/01/17 16:20:36;;;;;;;2.70;1.83;;;;;;;16.57;50.20;93477.97;10366017;28;20490;-25
2023/01/17 16:25:37;;;;;;;1.30;1.20;;;;;;;16.58;49.04;93474.53;10364125;28;20034;-26
2023/01/17 16:30:37;;;;;;;6.20;1.88;;;;;;;16.58;49.29;93477.06;10368081;28;20109;-26
2023/01/17 16:35:39;;;;;;;3.10;1.67;;;;;;;16.60;49.11;93477.81;10365529;28;20171;-27
2023/01/17 16:40:43;;;;;;;4.05;1.83;;;;;;;16.54;49.53;93472.22;10361572;28;20033;-26
2023/01/17 16:45:52;;;;;;;6.68;1.80;;;;;;;16.60;50.76;93470.22;10367306;28;20279;-27
2023/01/17 16:50:53;;;;;;;2.80;2.13;;;;;;;16.62;50.40;93476.03;10366271;28;20034;-27
2023/01/17 16:55:56;;;;;;;4.55;2.10;;;;;;;16.62;50.44;93468.44;10363936;28;20041;-27
2023/01/17 17:00:58;;;;;;;5.32;1.80;;;;;;;16.51;48.45;93469.81;10356734;28;20025;-27
2023/01/17 17:06:00;;;;;;;3.65;1.77;;;;;;;16.59;49.89;93467.75;10356016;28;20422;-27
2023/01/17 17:11:08;;;;;;;2.40;1.63;;;;;;;16.58;50.39;93461.91;10363143;28;20034;-27
2023/01/17 17:16:28;;;;;;;5.13;2.03;;;;;;;16.61;49.20;93461.78;10364107;28;20517;-27
2023/01/17 17:21:30;;;;;;;4.90;1.90;;;;;;;16.60;50.66;93467.72;10357718;28;20116;-27
2023/01/17 17:26:35;;;;;;;3.33;2.00;;;;;;;16.62;51.52;93470.97;10359981;28;20165;-27
2023/01/17 17:31:36;;;;;;;3.70;2.00;;;;;;;16.64;50.65;93468.41;10371095;28;20117;-27
2023/01/17 17:36:37;;;;;;;4.82;1.85;;;;;;;16.63;50.10;93466.75;10370365;28;20025;-27
2023/01/17 17:41:42;;;;;;;2.42;1.60;;;;;;;16.60;49.84;93474.47;10372044;28;20494;-28
2023/01/17 17:46:43;;;;;;;2.33;1.98;;;;;;;16.63;49.87;93492.81;10368044;28;20465;-27
2023/01/17 17:51:43;;;;;;;3.53;1.70;;;;;;;16.63;49.86;93497.88;10371918;28;20030;-27
2023/01/17 17:56:47;;;;;;;2.23;1.60;;;;;;;16.64;49.97;93501.22;10375555;28;20034;-27
2023/01/17 18:01:47;;;;;;;2.00;1.80;;;;;;;16.65;49.63;93516.31;10375555;28;20513;-26
2023/01/17 18:06:48;;;;;;;2.00;1.73;;;;;;;16.67;49.09;93523.81;10374614;28;20034;-26
2023/01/17 18:11:48;;;;;;;2.33;2.00;;;;;;;16.66;50.29;93530.56;10371001;28;20037;-26
2023/01/17 18:16:50;;;;;;;1.73;1.33;;;;;;;16.61;50.17;93534.19;10363227;28;20046;-28
2023/01/17 18:21:51;;;;;;;2.63;1.60;;;;;;;16.65;48.75;93539.03;10371614;28;20120;-27
2023/01/17 18:26:55;;;;;;;2.47;1.70;;;;;;;16.64;50.40;93547.50;10373327;28;20295;-27
2023/01/17 18:31:56;;;;;;;3.25;1.75;;;;;;;16.65;49.10;93545.78;10372144;28;20103;-27
2023/01/17 18:36:56;;;;;;;2.57;1.90;;;;;;;16.66;49.77;93552.47;10370711;28;20034;-27
2023/01/17 18:41:57;;;;;;;3.85;1.50;;;;;;;16.62;50.90;93559.34;10358485;28;20301;-27
2023/01/17 18:47:03;;;;;;;3.53;1.65;;;;;;;16.61;52.17;93554.41;10354596;28;20041;-27
2023/01/17 18:52:06;;;;;;;3.33;1.85;;;;;;;16.60;50.61;93543.47;10361029;28;20038;-26
2023/01/17 18:57:07;;;;;;;3.72;1.60;;;;;;;16.63;49.79;93545.84;10367238;28;20037;-26
2023/01/17 19:02:08;;;;;;;3.00;2.00;;;;;;;16.65;50.01;93544.09;10365769;28;20029;-25
2023/01/17 19:07:09;;;;;;;2.30;1.40;;;;;;;16.68;51.02;93549.00;10369256;28;20041;-27
2023/01/17 19:12:09;;;;;;;2.28;1.73;;;;;;;16.72;48.81;93550.53;10367183;28;20439;-27
2023/01/17 19:17:10;;;;;;;4.00;2.05;;;;;;;16.70;49.93;93557.31;10354077;28;20534;-27
2023/01/17 19:22:10;;;;;;;2.57;1.87;;;;;;;16.69;49.62;93548.09;10361173;28;20096;-28
2023/01/17 19:27:11;;;;;;;2.77;1.70;;;;;;;16.67;50.05;93549.06;10361311;28;20449;-28
2023/01/17 19:32:12;;;;;;;3.25;1.75;;;;;;;16.66;50.12;93552.47;10362133;28;20497;-27
2023/01/17 19:37:12;;;;;;;2.03;1.70;;;;;;;16.65;49.11;93556.72;10362788;28;20030;-27
2023/01/17 19:42:14;;;;;;;2.40;1.50;;;;;;;16.65;49.92;93558.41;10359388;28;20422;-27
2023/01/17 19:47:14;;;;;;;2.25;1.65;;;;;;;16.63;49.45;93550.09;10354184;28;20753;-27
2023/01/17 19:52:15;;;;;;;1.97;1.60;;;;;;;16.64;49.70;93579.50;10357735;28;20038;-27
2023/01/17 19:57:16;;;;;;;3.72;1.55;;;;;;;16.65;50.14;93563.47;10357289;28;20080;-26
2023/01/17 20:02:17;;;;;;;2.60;1.60;;;;;;;16.64;50.35;93560.13;10352957;28;20057;-26
2023/01/17 20:07:18;;;;;;;2.35;1.70;;;;;;;16.65;49.57;93566.81;10364212;28;20121;-27
2023/01/17 20:12:18;;;;;;;3.33;1.70;;;;;;;16.65;49.36;93568.50;10359222;28;20045;-27
2023/01/17 20:17:19;;;;;;;2.70;1.33;;;;;;;16.59;49.94;93567.06;10354764;28;20421;-27
2023/01/17 20:22:20;;;;;;;1.63;1.50;;;;;;;16.62;48.74;93564.41;10358597;28;20042;-27
2023/01/17 20:27:25;;;;;;;2.33;1.52;;;;;;;16.64;49.44;93565.19;10351637;28;20030;-27
2023/01/17 20:32:26;;;;;;;1.83;1.65;;;;;;;16.56;48.05;93548.72;10356506;28;20034;-27
2023/01/17 20:37:26;;;;;;;2.03;1.60;;;;;;;16.67;49.41;93567.56;10355805;28;20041;-27
2023/01/17 20:42:26;;;;;;;2.07;1.63;;;;;;;16.66;49.21;93568.47;10357029;28;20251;-27
2023/01/17 20:47:28;;;;;;;2.40;1.30;;;;;;;16.64;48.95;93574.44;10365631;28;20038;-27
2023/01/17 20:52:28;;;;;;;1.77;1.30;;;;;;;16.66;48.52;93591.19;10349048;28;20042;-27
2023/01/17 20:57:30;;;;;;;2.15;1.65;;;;;;;16.68;48.54;93581.84;10362988;28;20042;-27
2023/01/17 21:02:30;;;;;;;2.03;1.83;;;;;;;16.63;48.31;93573.63;10361270;28;20038;-27
2023/01/17 21:07:30;;;;;;;1.80;1.40;;;;;;;16.65;48.69;93587.03;10367098;28;20461;-27
2023/01/17 21:12:31;;;;;;;2.17;1.20;;;;;;;16.67;47.92;93583.53;10369907;28;20287;-27
2023/01/17 21:17:34;;;;;;;1.27;1.17;;;;;;;16.67;48.92;93595.34;10347972;28;20080;-27
2023/01/17 21:22:35;;;;;;;1.23;1.13;;;;;;;16.65;48.50;93598.81;10354367;28;20042;-26
2023/01/17 21:27:35;;;;;;;2.47;1.40;;;;;;;16.64;49.21;93599.72;10348904;28;20042;-27
2023/01/17 21:32:35;;;;;;;2.13;1.20;;;;;;;16.64;48.35;93605.59;10363039;28;20499;-28
2023/01/17 21:37:36;;;;;;;1.83;1.50;;;;;;;16.62;48.76;93602.28;10330981;28;20408;-26
2023/01/17 21:42:36;;;;;;;1.58;1.30;;;;;;;16.62;48.99;93601.47;10362363;28;20478;-26
2023/01/17 21:47:36;;;;;;;2.17;1.20;;;;;;;16.61;48.28;93600.66;10373729;28;20486;-27
2023/01/17 21:52:37;;;;;;;1.83;1.37;;;;;;;16.62;49.19;93609.84;10363767;28;20092;-27
2023/01/17 22:02:56;;;;;;;1.77;1.35;;;;;;;16.58;49.38;93623.50;10365270;28;20048;-27
2023/01/17 22:08:11;;;;;;;1.93;1.33;;;;;;;16.57;49.94;93628.63;10372691;28;20048;-27
2023/01/17 22:13:16;;;;;;;1.30;1.15;;;;;;;16.54;49.59;93627.03;10352798;28;20037;-26
2023/01/17 22:18:17;;;;;;;1.60;1.02;;;;;;;16.56;49.74;93629.50;10367315;28;20034;-27
2023/01/17 22:23:17;;;;;;;2.30;1.30;;;;;;;16.61;49.64;93632.69;10374180;28;20044;-26
2023/01/17 22:28:18;;;;;;;1.30;1.00;;;;;;;16.61;50.29;93641.06;10369277;28;20497;-26
2023/01/17 22:33:19;;;;;;;1.97;1.33;;;;;;;16.63;50.33;93624.13;10370715;28;20045;-26
2023/01/17 22:38:20;;;;;;;1.67;0.90;;;;;;;16.62;49.61;93640.16;10372032;28;20046;-27
2023/01/17 22:43:20;;;;;;;2.43;1.10;;;;;;;16.60;49.88;93639.41;10370770;28;20107;-27
2023/01/17 22:48:21;;;;;;;2.28;1.00;;;;;;;16.61;49.40;93643.56;10374444;28;20030;-27
2023/01/17 22:53:21;;;;;;;1.63;1.10;;;;;;;16.60;50.02;93644.47;10366770;28;20026;-29
2023/01/17 22:58:21;;;;;;;0.97;0.80;;;;;;;16.59;49.57;93647.03;10368984;28;20034;-27
2023/01/17 23:03:22;;;;;;;1.50;1.00;;;;;;;16.56;49.93;93648.00;10368491;28;20031;-26
2023/01/17 23:08:22;;;;;;;1.17;0.95;;;;;;;16.57;49.76;93643.78;10371044;28;20049;-28
2023/01/17 23:13:23;;;;;;;1.53;1.43;;;;;;;16.56;49.27;93648.00;10367343;28;20115;-26
2023/01/17 23:23:42;;;;;;;1.38;1.08;;;;;;;16.54;49.08;93644.72;10366716;28;20042;-27
2023/01/17 23:28:42;;;;;;;1.10;0.70;;;;;;;16.54;48.86;93628.75;10367908;28;20148;-27
2023/01/17 23:33:42;;;;;;;0.77;0.77;;;;;;;16.53;49.55;93650.66;10369109;28;20509;-26
2023/01/17 23:38:43;;;;;;;0.80;0.70;;;;;;;16.55;48.45;93651.41;10369158;28;20305;-27
2023/01/17 23:43:43;;;;;;;1.37;0.90;;;;;;;16.54;48.97;93649.75;10366297;28;20113;-27
2023/01/17 23:48:44;;;;;;;1.83;1.73;;;;;;;16.54;49.79;93651.47;10368472;28;20038;-27
2023/01/17 23:53:44;;;;;;;1.20;0.90;;;;;;;16.53;50.01;93650.66;10365387;28;20044;-28
2023/01/17 23:58:44;;;;;;;0.50;0.40;;;;;;;16.53;49.08;93647.31;10367491;28;20481;-28
